Time;durP1;ratioP1;P1;durP2;ratioP2;P2;SDS_P1;SDS_P2;PMS_P1;PMS_P2;Temp;Humidity;BMP_temperature;BMP_pressure;BME280_temperature;BME280_humidity;BME280_pressure;Samples;Min_cycle;Max_cycle;Signal;HPM_P1;HPM_P2
2022/03/28 00:01:54;;;;;;;10.98;8.02;;;6.90;99.90;;;;;;5051405;28;20120;-75
2022/03/28 00:04:20;;;;;;;25.38;8.65;;;6.90;99.90;;;;;;5052569;28;20166;-75
2022/03/28 00:06:46;;;;;;;16.10;8.37;;;6.90;99.90;;;;;;5052254;28;20071;-76
2022/03/28 00:09:12;;;;;;;17.30;9.13;;;6.80;99.90;;;;;;5051375;28;20283;-76
2022/03/28 00:11:38;;;;;;;14.57;9.23;;;6.80;99.90;;;;;;5052512;28;20617;-76
2022/03/28 00:14:04;;;;;;;16.73;9.27;;;6.70;99.90;;;;;;5052220;28;20099;-75
2022/03/28 00:16:30;;;;;;;25.20;9.13;;;6.70;99.90;;;;;;5050911;28;20053;-76
2022/03/28 00:18:56;;;;;;;14.70;9.30;;;6.70;99.90;;;;;;5034627;28;20045;-75
2022/03/28 00:21:22;;;;;;;30.33;9.77;;;6.70;99.90;;;;;;5052452;28;20092;-75
2022/03/28 00:23:48;;;;;;;13.35;9.38;;;6.80;99.90;;;;;;5052146;28;20088;-75
2022/03/28 00:26:14;;;;;;;50.85;9.38;;;6.70;99.90;;;;;;5052334;28;20052;-75
2022/03/28 00:28:39;;;;;;;54.13;10.30;;;6.80;99.90;;;;;;5052284;28;20049;-76
2022/03/28 00:31:05;;;;;;;27.00;8.73;;;6.80;99.90;;;;;;5051032;28;20485;-75
2022/03/28 00:33:31;;;;;;;18.20;8.47;;;6.70;99.90;;;;;;5052479;28;20049;-75
2022/03/28 00:35:57;;;;;;;12.03;8.27;;;6.70;99.90;;;;;;5054801;28;20037;-75
2022/03/28 00:38:22;;;;;;;46.93;9.90;;;6.70;99.90;;;;;;5038201;28;20053;-75
2022/03/28 00:40:48;;;;;;;37.80;9.67;;;6.70;99.90;;;;;;5055937;28;20443;-75
2022/03/28 00:43:14;;;;;;;13.60;9.37;;;6.70;99.90;;;;;;5055858;28;20128;-75
2022/03/28 00:45:41;;;;;;;21.30;8.73;;;6.70;99.90;;;;;;5055542;28;20080;-75
2022/03/28 00:48:09;;;;;;;31.77;9.90;;;6.70;99.90;;;;;;5055630;28;20045;-75
2022/03/28 00:50:35;;;;;;;13.35;9.00;;;6.70;99.90;;;;;;5055799;28;20465;-76
2022/03/28 00:53:04;;;;;;;26.83;9.27;;;6.70;99.90;;;;;;5055399;28;20111;-76
2022/03/28 00:55:30;;;;;;;13.30;8.73;;;6.70;99.90;;;;;;5054643;28;20048;-75
2022/03/28 00:57:56;;;;;;;12.47;9.30;;;6.70;99.90;;;;;;5055426;28;20397;-76
2022/03/28 01:00:21;;;;;;;33.23;10.03;;;6.70;99.90;;;;;;5037720;28;20507;-76
2022/03/28 01:02:48;;;;;;;12.43;8.93;;;6.70;99.90;;;;;;5037983;28;20059;-76
2022/03/28 01:05:14;;;;;;;18.20;9.65;;;6.60;99.90;;;;;;5055199;28;20040;-75
2022/03/28 01:07:41;;;;;;;22.15;9.70;;;6.70;99.90;;;;;;5055537;28;20045;-75
2022/03/28 01:10:10;;;;;;;14.32;8.52;;;6.70;99.90;;;;;;5054144;28;20485;-76
2022/03/28 01:12:37;;;;;;;16.77;9.55;;;6.70;99.90;;;;;;5055368;28;20516;-75
2022/03/28 01:15:04;;;;;;;17.75;9.48;;;6.70;99.90;;;;;;5055104;28;20127;-75
2022/03/28 01:20:15;;;;;;;14.23;8.88;;;6.70;99.90;;;;;;5054639;28;20485;-76
2022/03/28 01:22:41;;;;;;;11.93;8.80;;;6.60;99.90;;;;;;5054309;28;20055;-76
2022/03/28 01:25:07;;;;;;;17.67;8.73;;;6.60;99.90;;;;;;5054936;28;20052;-76
2022/03/28 01:27:36;;;;;;;18.58;9.30;;;6.60;99.90;;;;;;5055106;28;20040;-76
2022/03/28 01:30:04;;;;;;;13.27;10.18;;;6.60;99.90;;;;;;5053792;28;20408;-76
2022/03/28 01:32:31;;;;;;;12.60;8.85;;;6.60;99.90;;;;;;5057080;28;20041;-76
2022/03/28 01:34:56;;;;;;;13.13;9.68;;;6.70;99.90;;;;;;5037251;28;20044;-76
2022/03/28 01:37:22;;;;;;;13.33;9.17;;;6.80;99.90;;;;;;5037080;28;20059;-76
2022/03/28 01:39:49;;;;;;;13.10;9.20;;;6.80;99.90;;;;;;5053839;28;20515;-76
2022/03/28 01:42:15;;;;;;;16.02;9.70;;;6.70;99.90;;;;;;5054496;28;20076;-76
2022/03/28 01:44:41;;;;;;;12.88;9.27;;;6.70;99.90;;;;;;5053810;28;20053;-76
2022/03/28 01:47:07;;;;;;;17.95;9.73;;;6.70;99.90;;;;;;5052564;28;20048;-76
2022/03/28 01:49:33;;;;;;;18.17;10.40;;;6.60;99.90;;;;;;5053722;28;20049;-76
2022/03/28 01:51:59;;;;;;;13.07;9.17;;;6.60;99.90;;;;;;5053169;28;20045;-76
2022/03/28 01:54:24;;;;;;;17.87;10.00;;;6.60;99.90;;;;;;5053686;28;20118;-76
2022/03/28 01:56:50;;;;;;;17.23;9.93;;;6.70;99.90;;;;;;5053399;28;20037;-76
2022/03/28 01:59:16;;;;;;;17.10;9.00;;;6.70;99.90;;;;;;5053134;28;20056;-76
2022/03/28 02:01:42;;;;;;;11.63;8.70;;;6.70;99.90;;;;;;5054479;28;20118;-75
2022/03/28 02:04:08;;;;;;;12.35;8.77;;;6.60;99.90;;;;;;5053130;28;20053;-76
2022/03/28 02:06:34;;;;;;;10.67;9.17;;;6.60;99.90;;;;;;5054378;28;20099;-76
2022/03/28 02:09:00;;;;;;;11.23;8.43;;;6.60;99.90;;;;;;5054367;28;20084;-75
2022/03/28 02:11:26;;;;;;;11.43;8.60;;;6.60;99.90;;;;;;5053330;28;20348;-75
2022/03/28 02:13:51;;;;;;;12.40;8.60;;;6.50;99.90;;;;;;5052877;28;20056;-75
2022/03/28 02:16:17;;;;;;;11.80;7.90;;;6.50;99.90;;;;;;5052567;28;20056;-76
2022/03/28 02:18:43;;;;;;;9.67;7.70;;;6.40;99.90;;;;;;5053925;28;20527;-75
2022/03/28 02:21:09;;;;;;;14.70;9.13;;;6.40;99.90;;;;;;5052842;28;20044;-75
2022/03/28 02:23:34;;;;;;;11.53;9.00;;;6.50;99.90;;;;;;5054105;28;20052;-75
2022/03/28 02:26:00;;;;;;;14.00;9.73;;;6.50;99.90;;;;;;5054018;28;20045;-75
2022/03/28 02:28:26;;;;;;;13.40;9.37;;;6.50;99.90;;;;;;5036054;28;20374;-76
2022/03/28 02:30:53;;;;;;;16.57;9.43;;;6.50;99.90;;;;;;5052971;28;20094;-76
2022/03/28 02:33:20;;;;;;;16.65;10.52;;;6.50;99.90;;;;;;5053772;28;20389;-76
2022/03/28 02:35:46;;;;;;;17.52;10.07;;;6.50;99.90;;;;;;5053663;28;20084;-76
2022/03/28 02:38:12;;;;;;;13.77;9.27;;;6.60;99.90;;;;;;5052288;28;20057;-76
2022/03/28 02:40:38;;;;;;;12.27;9.37;;;6.60;99.90;;;;;;5053651;28;20048;-76
2022/03/28 02:43:04;;;;;;;18.43;10.23;;;6.60;99.90;;;;;;5052451;28;20049;-75
2022/03/28 02:45:32;;;;;;;14.00;9.70;;;6.60;99.90;;;;;;5053607;28;20044;-75
2022/03/28 02:48:01;;;;;;;16.27;9.48;;;6.60;99.90;;;;;;5052301;28;20048;-75
2022/03/28 02:50:28;;;;;;;13.90;9.20;;;6.60;99.90;;;;;;5053286;28;20142;-75
2022/03/28 02:52:54;;;;;;;15.18;9.70;;;6.60;99.90;;;;;;5035859;28;20044;-75
2022/03/28 02:55:21;;;;;;;14.15;9.90;;;6.60;99.90;;;;;;5053153;28;20051;-76
2022/03/28 02:57:47;;;;;;;14.10;9.75;;;6.70;99.90;;;;;;5035222;28;20055;-77
2022/03/28 03:00:13;;;;;;;14.40;9.80;;;6.70;99.90;;;;;;5052733;28;20123;-76
2022/03/28 03:02:39;;;;;;;15.43;10.60;;;6.60;99.90;;;;;;5052406;28;20056;-76
2022/03/28 03:05:06;;;;;;;14.77;9.82;;;6.50;99.90;;;;;;5053273;28;20044;-76
2022/03/28 03:07:32;;;;;;;19.80;10.68;;;6.50;99.90;;;;;;5052178;28;20056;-75
2022/03/28 03:09:58;;;;;;;13.38;10.48;;;6.50;99.90;;;;;;5051997;28;20076;-76
2022/03/28 03:12:24;;;;;;;13.67;10.27;;;6.50;99.90;;;;;;5051868;28;20087;-76
2022/03/28 03:14:51;;;;;;;13.03;9.03;;;6.50;99.90;;;;;;5052787;28;20053;-76
2022/03/28 03:17:17;;;;;;;11.95;9.63;;;6.50;99.90;;;;;;5052375;28;20489;-76
2022/03/28 03:19:44;;;;;;;13.00;10.07;;;6.40;99.90;;;;;;5052126;28;20053;-76
2022/03/28 03:22:11;;;;;;;12.43;9.35;;;6.40;99.90;;;;;;5051510;28;20057;-76
2022/03/28 03:24:37;;;;;;;12.68;9.50;;;6.30;99.90;;;;;;5052118;28;20083;-76
2022/03/28 03:27:03;;;;;;;10.87;9.73;;;6.30;99.90;;;;;;5052943;28;20080;-76
2022/03/28 03:29:28;;;;;;;11.83;9.50;;;6.30;99.90;;;;;;5035304;28;20049;-76
2022/03/28 03:31:54;;;;;;;14.50;10.00;;;6.30;99.90;;;;;;5053738;28;20303;-76
2022/03/28 03:34:20;;;;;;;13.80;10.93;;;6.20;99.90;;;;;;5052658;28;20049;-76
2022/03/28 03:36:46;;;;;;;17.43;11.07;;;6.30;99.90;;;;;;5051727;28;20558;-76
2022/03/28 03:39:12;;;;;;;17.43;12.53;;;6.30;99.90;;;;;;5034985;28;20045;-76
2022/03/28 03:41:37;;;;;;;14.77;10.63;;;6.30;99.90;;;;;;5052841;28;20485;-76
2022/03/28 03:44:03;;;;;;;13.90;10.37;;;6.30;99.90;;;;;;5051989;28;20053;-76
2022/03/28 03:46:29;;;;;;;14.80;10.95;;;6.30;99.90;;;;;;5052451;28;20037;-76
2022/03/28 03:48:55;;;;;;;13.57;10.37;;;6.30;99.90;;;;;;5051424;28;20386;-75
2022/03/28 03:51:21;;;;;;;13.67;10.67;;;6.30;99.90;;;;;;5034779;28;20076;-76
2022/03/28 03:53:46;;;;;;;17.63;11.23;;;6.40;99.90;;;;;;5052723;28;20048;-76
2022/03/28 03:56:12;;;;;;;16.13;11.00;;;6.30;99.90;;;;;;5051725;28;20041;-76
2022/03/28 03:58:38;;;;;;;16.97;10.50;;;6.30;99.90;;;;;;5051385;28;20487;-75
2022/03/28 04:01:04;;;;;;;15.57;11.80;;;6.30;99.90;;;;;;5052706;28;20136;-75
2022/03/28 04:03:30;;;;;;;14.67;11.67;;;6.30;99.90;;;;;;5052318;28;20132;-76
2022/03/28 04:05:55;;;;;;;17.30;11.93;;;6.30;99.90;;;;;;5051634;28;20041;-76
2022/03/28 04:08:21;;;;;;;14.23;10.73;;;6.30;99.90;;;;;;5051976;28;20301;-76
2022/03/28 04:10:47;;;;;;;17.97;11.60;;;6.30;99.90;;;;;;5055544;28;20053;-76
2022/03/28 04:13:14;;;;;;;16.90;12.57;;;6.30;99.90;;;;;;5056352;28;20481;-75
2022/03/28 04:15:39;;;;;;;14.57;11.20;;;6.30;99.90;;;;;;5056049;28;20053;-76
2022/03/28 04:18:05;;;;;;;12.83;10.00;;;6.30;99.90;;;;;;5056386;28;20052;-76
2022/03/28 04:20:32;;;;;;;13.65;10.10;;;6.30;99.90;;;;;;5056041;28;20084;-76
2022/03/28 04:22:58;;;;;;;16.85;10.23;;;6.30;99.90;;;;;;5056560;28;20084;-76
2022/03/28 04:25:24;;;;;;;12.77;10.57;;;6.30;99.90;;;;;;5055935;28;20519;-76
2022/03/28 04:27:50;;;;;;;13.98;10.73;;;6.30;99.90;;;;;;5056168;28;20283;-76
2022/03/28 04:30:16;;;;;;;14.13;10.13;;;6.30;99.90;;;;;;5056151;28;20052;-76
2022/03/28 04:32:42;;;;;;;13.40;10.07;;;6.30;99.90;;;;;;5054629;28;20049;-76
2022/03/28 04:35:09;;;;;;;14.73;11.10;;;6.30;99.90;;;;;;5055761;28;20048;-76
2022/03/28 04:37:37;;;;;;;17.10;11.82;;;6.30;99.90;;;;;;5037578;28;20300;-76
2022/03/28 04:40:05;;;;;;;19.52;12.00;;;6.30;99.90;;;;;;5055970;28;20124;-76
2022/03/28 04:42:31;;;;;;;14.02;10.93;;;6.40;99.90;;;;;;5055650;28;20378;-76
2022/03/28 04:44:57;;;;;;;16.48;10.00;;;6.40;99.90;;;;;;5055866;28;20045;-76
2022/03/28 04:47:23;;;;;;;15.73;10.83;;;6.40;99.90;;;;;;5055679;28;20033;-76
2022/03/28 04:49:48;;;;;;;13.37;10.57;;;6.30;99.90;;;;;;5055836;28;20052;-76
2022/03/28 04:52:14;;;;;;;15.90;10.37;;;6.30;99.90;;;;;;5054727;28;20072;-76
2022/03/28 04:54:40;;;;;;;12.83;9.70;;;6.40;99.90;;;;;;5021441;28;20064;-76
2022/03/28 04:57:06;;;;;;;12.17;10.00;;;6.30;99.90;;;;;;5037800;28;20048;-76
2022/03/28 04:59:32;;;;;;;13.17;9.47;;;6.30;99.90;;;;;;5054233;28;20053;-76
2022/03/28 05:01:59;;;;;;;10.85;8.77;;;6.30;99.90;;;;;;5055880;28;20053;-76
2022/03/28 05:04:25;;;;;;;17.50;10.85;;;6.20;99.90;;;;;;5055251;28;20071;-76
2022/03/28 05:06:52;;;;;;;19.33;10.65;;;6.10;99.90;;;;;;5055464;28;20044;-77
2022/03/28 05:09:18;;;;;;;15.20;10.73;;;6.20;99.90;;;;;;5055780;28;20139;-76
2022/03/28 05:11:44;;;;;;;14.53;11.07;;;6.20;99.90;;;;;;5055126;28;20049;-76
2022/03/28 05:14:10;;;;;;;13.43;10.77;;;6.10;99.90;;;;;;5054154;28;20120;-76
2022/03/28 05:16:36;;;;;;;15.98;11.05;;;6.20;99.90;;;;;;5053606;28;20053;-76
2022/03/28 05:19:03;;;;;;;16.30;11.00;;;6.10;99.90;;;;;;5054317;28;20052;-76
2022/03/28 05:21:29;;;;;;;16.23;11.52;;;6.10;99.90;;;;;;5052771;28;20049;-76
2022/03/28 05:23:54;;;;;;;16.57;11.73;;;6.10;99.90;;;;;;5054222;28;20052;-76
2022/03/28 05:26:20;;;;;;;13.63;11.00;;;6.20;99.90;;;;;;5054986;28;20051;-76
2022/03/28 05:28:46;;;;;;;15.53;10.30;;;6.20;99.90;;;;;;5037414;28;20045;-76
2022/03/28 05:31:12;;;;;;;14.52;10.40;;;6.30;99.90;;;;;;5055882;28;20049;-77
2022/03/28 05:33:38;;;;;;;15.83;12.00;;;6.30;99.90;;;;;;5056575;28;20374;-76
2022/03/28 05:36:04;;;;;;;13.50;11.00;;;6.20;99.90;;;;;;5055132;28;20124;-76
2022/03/28 05:38:30;;;;;;;16.40;10.95;;;6.20;99.90;;;;;;5054641;28;20049;-76
2022/03/28 05:40:57;;;;;;;14.48;10.73;;;6.30;99.90;;;;;;5053499;28;20056;-76
2022/03/28 05:43:24;;;;;;;16.60;11.43;;;6.20;99.90;;;;;;5054783;28;20081;-76
2022/03/28 05:45:52;;;;;;;14.50;10.82;;;6.30;99.90;;;;;;5054432;28;20204;-76
2022/03/28 05:48:19;;;;;;;16.98;11.55;;;6.20;99.90;;;;;;5054688;28;20056;-76
2022/03/28 05:50:46;;;;;;;13.07;11.18;;;6.30;99.90;;;;;;5036530;28;20049;-76
2022/03/28 05:53:13;;;;;;;13.30;10.63;;;6.20;99.90;;;;;;5036964;28;20139;-76
2022/03/28 05:55:43;;;;;;;13.82;10.63;;;6.20;99.90;;;;;;5054173;28;20091;-76
2022/03/28 05:58:09;;;;;;;13.50;10.93;;;6.20;99.90;;;;;;5053554;28;20132;-76
2022/03/28 06:00:36;;;;;;;16.25;11.23;;;6.20;99.90;;;;;;5036586;28;20052;-76
2022/03/28 06:03:04;;;;;;;16.13;12.18;;;6.20;99.90;;;;;;5053263;28;20079;-76
2022/03/28 06:05:31;;;;;;;14.77;11.93;;;6.30;99.90;;;;;;5052892;28;20053;-77
2022/03/28 06:07:56;;;;;;;17.15;12.48;;;6.30;99.90;;;;;;5053120;28;20052;-77
2022/03/28 06:10:22;;;;;;;15.83;11.83;;;6.30;99.90;;;;;;5053973;28;20049;-77
2022/03/28 06:12:48;;;;;;;17.27;11.83;;;6.20;99.90;;;;;;5053939;28;20084;-77
2022/03/28 06:15:13;;;;;;;18.93;12.23;;;6.10;99.90;;;;;;5053792;28;20057;-77
2022/03/28 06:17:39;;;;;;;15.73;11.03;;;6.10;99.90;;;;;;5053814;28;20480;-77
2022/03/28 06:20:06;;;;;;;15.27;11.15;;;6.10;99.90;;;;;;5052924;28;20070;-77
2022/03/28 06:22:32;;;;;;;15.20;11.55;;;6.10;99.90;;;;;;5053750;28;20060;-77
2022/03/28 06:24:59;;;;;;;13.87;10.67;;;6.10;99.90;;;;;;5052955;28;20049;-77
2022/03/28 06:27:25;;;;;;;13.23;10.20;;;6.10;99.90;;;;;;5036478;28;20045;-77
2022/03/28 06:29:51;;;;;;;13.97;10.23;;;6.20;99.90;;;;;;5053715;28;20040;-77
2022/03/28 06:32:17;;;;;;;19.20;11.13;;;6.10;99.90;;;;;;5052369;28;20049;-77
2022/03/28 06:34:42;;;;;;;15.60;11.40;;;6.20;99.90;;;;;;5053531;28;20041;-77
2022/03/28 06:37:08;;;;;;;18.30;11.20;;;6.10;99.90;;;;;;5053760;28;20055;-77
2022/03/28 06:39:34;;;;;;;14.47;10.17;;;6.10;99.90;;;;;;5019541;28;20045;-77
2022/03/28 06:42:00;;;;;;;13.47;10.20;;;6.20;99.90;;;;;;5052818;28;20053;-77
2022/03/28 06:44:26;;;;;;;12.15;8.13;;;6.10;99.90;;;;;;5053606;28;20068;-77
2022/03/28 06:46:52;;;;;;;9.07;7.03;;;6.10;99.90;;;;;;5053106;28;20477;-77
2022/03/28 06:49:18;;;;;;;10.13;6.27;;;6.10;99.90;;;;;;5053533;28;20053;-77
2022/03/28 06:51:43;;;;;;;9.23;6.57;;;6.20;99.90;;;;;;5053134;28;20394;-77
2022/03/28 06:54:10;;;;;;;10.97;6.40;;;6.10;99.90;;;;;;5052498;28;20516;-77
2022/03/28 06:56:36;;;;;;;9.23;6.05;;;6.10;99.90;;;;;;5051648;28;20102;-77
2022/03/28 06:59:02;;;;;;;8.77;5.67;;;6.10;99.90;;;;;;5053564;28;20049;-77
2022/03/28 07:01:28;;;;;;;8.97;5.67;;;6.10;99.90;;;;;;5052190;28;20072;-77
2022/03/28 07:03:55;;;;;;;9.03;4.93;;;6.10;99.90;;;;;;5052975;28;20076;-77
2022/03/28 07:06:21;;;;;;;7.55;4.72;;;6.20;99.90;;;;;;5052080;28;20338;-77
2022/03/28 07:08:47;;;;;;;7.10;4.53;;;6.20;99.90;;;;;;5052947;28;20052;-77
2022/03/28 07:11:13;;;;;;;5.97;3.83;;;6.10;99.90;;;;;;5052160;28;20124;-77
2022/03/28 07:13:39;;;;;;;5.10;2.80;;;6.00;99.90;;;;;;5051512;28;20107;-77
2022/03/28 07:16:04;;;;;;;5.07;2.97;;;6.00;99.90;;;;;;5053410;28;20132;-77
2022/03/28 07:18:30;;;;;;;5.53;3.27;;;5.90;99.90;;;;;;5052752;28;20076;-77
2022/03/28 07:20:56;;;;;;;5.77;3.50;;;5.90;99.90;;;;;;5051811;28;20052;-77
2022/03/28 07:23:22;;;;;;;5.53;3.40;;;6.00;99.90;;;;;;5051942;28;20045;-77
2022/03/28 07:25:48;;;;;;;4.72;2.83;;;6.00;99.90;;;;;;5051393;28;20140;-77
2022/03/28 07:28:17;;;;;;;5.00;2.97;;;6.10;99.90;;;;;;5051918;28;20084;-76
2022/03/28 07:30:43;;;;;;;4.97;3.03;;;6.20;99.90;;;;;;5051706;28;20050;-77
2022/03/28 07:33:09;;;;;;;5.60;3.42;;;6.10;99.90;;;;;;5054376;28;20053;-80
2022/03/28 07:35:37;;;;;;;6.32;3.83;;;6.10;99.90;;;;;;5052146;28;20516;-80
2022/03/28 07:38:08;;;;;;;5.97;3.80;;;6.10;99.90;;;;;;5051342;28;20076;-79
2022/03/28 07:40:41;;;;;;;8.35;3.67;;;6.10;99.90;;;;;;5051796;28;20040;-79
2022/03/28 07:43:07;;;;;;;6.68;3.72;;;6.20;99.90;;;;;;5051776;28;20060;-79
2022/03/28 07:45:33;;;;;;;7.40;4.10;;;6.20;99.90;;;;;;5057786;28;20625;-78
2022/03/28 07:47:59;;;;;;;5.78;3.08;;;6.10;99.90;;;;;;5057943;28;20388;-80
2022/03/28 07:50:25;;;;;;;5.63;3.70;;;6.20;99.90;;;;;;5058421;28;20135;-79
2022/03/28 07:52:51;;;;;;;6.23;3.97;;;6.30;99.90;;;;;;5059028;28;20041;-78
2022/03/28 07:55:18;;;;;;;6.03;3.80;;;6.40;99.90;;;;;;5059393;28;20511;-78
2022/03/28 07:57:44;;;;;;;6.85;3.90;;;6.40;99.90;;;;;;5059161;28;20045;-76
2022/03/28 08:00:14;;;;;;;6.72;3.83;;;6.40;99.90;;;;;;5059436;28;20053;-78
2022/03/28 08:02:40;;;;;;;6.05;3.40;;;6.40;99.90;;;;;;5059165;28;20497;-79
2022/03/28 08:05:07;;;;;;;5.50;3.72;;;6.40;99.90;;;;;;5058942;28;20048;-78
2022/03/28 08:07:33;;;;;;;7.28;4.13;;;6.50;99.90;;;;;;5058075;28;20067;-79
2022/03/28 08:10:00;;;;;;;6.60;4.55;;;6.50;99.90;;;;;;5057735;28;20041;-78
2022/03/28 08:12:26;;;;;;;6.00;4.10;;;6.50;99.90;;;;;;5059158;28;20057;-79
2022/03/28 08:14:52;;;;;;;7.67;4.30;;;6.50;99.90;;;;;;5058961;28;20049;-78
2022/03/28 08:17:19;;;;;;;7.15;4.80;;;6.60;99.90;;;;;;5058953;28;20299;-78
2022/03/28 08:19:45;;;;;;;6.70;4.38;;;6.60;99.90;;;;;;5057997;28;20068;-79
2022/03/28 08:22:11;;;;;;;7.53;5.38;;;6.60;99.90;;;;;;5057696;28;20045;-79
2022/03/28 08:24:38;;;;;;;7.33;4.67;;;6.70;99.90;;;;;;5059112;28;20045;-78
2022/03/28 08:27:03;;;;;;;7.13;5.32;;;6.70;99.90;;;;;;5058638;28;20103;-80
2022/03/28 08:29:32;;;;;;;7.50;5.20;;;6.80;99.90;;;;;;5057882;28;20046;-80
2022/03/28 08:32:04;;;;;;;8.70;5.40;;;6.80;99.90;;;;;;5058790;28;20059;-80
2022/03/28 08:34:30;;;;;;;8.63;5.63;;;6.80;99.90;;;;;;5059275;28;20378;-83
2022/03/28 08:36:56;;;;;;;9.60;6.57;;;6.80;99.90;;;;;;5057395;28;20072;-85
2022/03/28 08:39:22;;;;;;;7.88;5.78;;;6.70;99.90;;;;;;5057475;28;20045;-84
2022/03/28 08:41:48;;;;;;;9.53;6.87;;;6.80;99.90;;;;;;5043155;28;20052;-87
2022/03/28 08:44:17;;;;;;;8.98;6.85;;;6.80;99.90;;;;;;5038870;28;20049;-87
2022/03/28 08:46:45;;;;;;;8.98;7.22;;;6.90;99.90;;;;;;5037817;28;20049;-91
2022/03/28 08:49:11;;;;;;;9.45;7.00;;;6.90;99.90;;;;;;5038160;28;20056;-88
2022/03/28 08:51:37;;;;;;;9.45;6.30;;;6.90;99.90;;;;;;5038061;28;20060;-90
2022/03/28 08:54:03;;;;;;;9.33;6.10;;;7.00;99.90;;;;;;5037764;28;20041;-86
2022/03/28 08:56:30;;;;;;;10.20;7.43;;;7.00;99.90;;;;;;5037129;28;20045;-91
2022/03/28 08:58:56;;;;;;;9.98;7.93;;;6.90;99.90;;;;;;5034620;28;20049;-88
2022/03/28 09:01:23;;;;;;;12.23;7.70;;;6.90;99.90;;;;;;5035871;28;20041;-86
2022/03/28 09:03:50;;;;;;;8.77;7.38;;;6.90;99.90;;;;;;5035634;28;20064;-79
2022/03/28 09:06:28;;;;;;;9.05;7.70;;;7.00;99.90;;;;;;5034055;28;20172;-85
2022/03/28 09:08:54;;;;;;;9.63;8.18;;;7.00;99.90;;;;;;5035231;28;20048;-83
2022/03/28 09:11:20;;;;;;;10.17;7.90;;;7.00;99.90;;;;;;5035389;28;20045;-83
2022/03/28 09:13:46;;;;;;;9.93;8.50;;;7.10;99.90;;;;;;5034159;28;21672;-84
2022/03/28 09:16:18;;;;;;;9.97;8.03;;;7.10;99.90;;;;;;5035060;28;20051;-83
2022/03/28 09:18:44;;;;;;;9.70;8.48;;;7.10;99.90;;;;;;5035496;28;20132;-84
2022/03/28 09:21:16;;;;;;;9.83;8.23;;;7.10;99.90;;;;;;5034893;28;20136;-85
2022/03/28 09:23:45;;;;;;;11.23;8.98;;;7.10;99.90;;;;;;5035407;28;20042;-81
2022/03/28 09:26:18;;;;;;;10.43;7.97;;;7.20;99.90;;;;;;5017238;28;20429;-85
2022/03/28 09:28:56;;;;;;;11.00;8.30;;;7.20;99.90;;;;;;5033896;28;20580;-87
2022/03/28 09:31:39;;;;;;;10.77;8.52;;;7.30;99.90;;;;;;5035598;28;20052;-85
2022/03/28 09:34:16;;;;;;;12.20;8.68;;;7.30;99.90;;;;;;5037776;28;20481;-87
2022/03/28 09:36:48;;;;;;;10.38;9.13;;;7.40;99.90;;;;;;5035631;28;20041;-86
2022/03/28 09:39:26;;;;;;;10.75;8.82;;;7.50;99.90;;;;;;5034018;28;20050;-88
2022/03/28 09:42:10;;;;;;;9.80;8.80;;;7.50;99.90;;;;;;5035165;28;20049;-86
2022/03/28 09:44:47;;;;;;;10.23;8.57;;;7.60;99.90;;;;;;5033415;28;20512;-86
2022/03/28 09:47:32;;;;;;;12.13;9.23;;;7.60;99.90;;;;;;5034601;28;20069;-80
2022/03/28 09:49:57;;;;;;;10.75;9.30;;;7.80;99.90;;;;;;5034846;28;20477;-77
2022/03/28 09:52:26;;;;;;;13.73;9.37;;;7.80;99.90;;;;;;5033640;28;20057;-83
2022/03/28 09:54:58;;;;;;;11.77;9.32;;;7.90;99.90;;;;;;5032967;28;20045;-83
2022/03/28 09:57:32;;;;;;;11.13;8.57;;;8.00;99.90;;;;;;5032886;28;20124;-84
2022/03/28 10:00:14;;;;;;;12.50;9.43;;;8.10;99.90;;;;;;5033964;28;20818;-83
2022/03/28 10:02:41;;;;;;;12.00;9.00;;;8.20;99.90;;;;;;5034480;28;20636;-84
2022/03/28 10:05:08;;;;;;;11.63;9.10;;;8.30;99.90;;;;;;5034212;28;20287;-83
2022/03/28 10:07:34;;;;;;;9.67;8.63;;;8.30;99.90;;;;;;5033972;28;20632;-83
2022/03/28 10:10:01;;;;;;;10.17;8.50;;;8.50;99.90;;;;;;5034426;28;20287;-80
2022/03/28 10:12:27;;;;;;;13.50;9.77;;;8.60;99.90;;;;;;5017272;28;20632;-83
2022/03/28 10:14:57;;;;;;;20.93;10.23;;;8.60;99.90;;;;;;5032781;28;20284;-87
2022/03/28 10:17:31;;;;;;;11.40;9.03;;;8.70;99.90;;;;;;5034145;28;20044;-83
2022/03/28 10:19:58;;;;;;;10.30;9.03;;;8.70;99.90;;;;;;5016791;28;20371;-84
2022/03/28 10:22:36;;;;;;;12.07;9.30;;;8.70;99.90;;;;;;5033925;28;20382;-84
2022/03/28 10:25:09;;;;;;;12.57;8.83;;;8.80;99.90;;;;;;5034236;28;20272;-77
2022/03/28 10:27:36;;;;;;;11.10;9.40;;;9.00;99.90;;;;;;5034073;28;20268;-84
2022/03/28 10:30:17;;;;;;;12.23;9.77;;;9.00;99.90;;;;;;5034065;28;20276;-83
2022/03/28 10:32:43;;;;;;;11.77;9.60;;;9.10;99.90;;;;;;5034035;28;20288;-83
2022/03/28 10:35:10;;;;;;;11.17;9.67;;;9.20;99.90;;;;;;5032737;28;20319;-84
2022/03/28 10:37:49;;;;;;;10.90;9.03;;;9.20;99.90;;;;;;5033771;28;20049;-84
2022/03/28 10:40:16;;;;;;;11.37;10.13;;;9.10;99.90;;;;;;5033948;28;20314;-84
2022/03/28 10:43:05;;;;;;;15.20;10.30;;;9.20;99.90;;;;;;5016231;28;20300;-84
2022/03/28 10:45:37;;;;;;;11.53;10.10;;;9.20;99.90;;;;;;5032827;28;20296;-83
2022/03/28 10:48:04;;;;;;;12.80;9.70;;;9.20;99.90;;;;;;5033752;28;20651;-84
2022/03/28 10:50:51;;;;;;;13.83;10.60;;;9.20;99.90;;;;;;5032183;28;20798;-81
2022/03/28 10:53:19;;;;;;;10.37;9.33;;;;;;;;;;5032262;28;20764;-83
2022/03/28 10:55:46;;;;;;;12.57;10.00;;;9.50;99.90;;;;;;5033668;28;20340;-86
2022/03/28 10:58:39;;;;;;;12.23;9.20;;;9.70;99.90;;;;;;5033296;28;20316;-92
2022/03/28 11:01:08;;;;;;;14.20;9.57;;;9.70;99.90;;;;;;5033957;28;20283;-93
2022/03/28 11:03:46;;;;;;;12.80;10.27;;;9.90;99.90;;;;;;5032602;28;20296;-88
2022/03/28 11:06:20;;;;;;;13.93;9.27;;;10.00;99.90;;;;;;5033380;28;20276;-91
2022/03/28 11:08:58;;;;;;;12.23;9.57;;;10.20;99.90;;;;;;5032513;28;20780;-90
2022/03/28 11:11:32;;;;;;;11.17;9.70;;;10.30;99.90;;;;;;5033249;28;20280;-93
2022/03/28 11:14:03;;;;;;;10.93;9.00;;;10.30;99.90;;;;;;5033580;28;20303;-88
2022/03/28 11:16:49;;;;;;;12.10;10.80;;;10.30;99.90;;;;;;5031683;28;20413;-85
2022/03/28 11:19:29;;;;;;;14.50;10.40;;;10.30;99.90;;;;;;5032221;28;20284;-85
2022/03/28 11:21:59;;;;;;;12.30;10.70;;;10.30;99.90;;;;;;5015879;28;20625;-78
2022/03/28 11:24:56;;;;;;;11.63;9.97;;;10.40;99.90;;;;;;5032812;28;20272;-82
2022/03/28 11:27:24;;;;;;;11.73;9.93;;;10.50;99.90;;;;;;5031780;28;20637;-84
2022/03/28 11:29:59;;;;;;;12.27;11.07;;;10.60;99.90;;;;;;5032779;28;20824;-79
2022/03/28 11:32:31;;;;;;;11.07;9.77;;;10.70;99.90;;;;;;5032031;28;20357;-86
2022/03/28 11:34:57;;;;;;;10.73;9.40;;;;;;;;;;5035227;28;20283;-81
2022/03/28 11:37:25;;;;;;;13.47;10.47;;;11.00;99.90;;;;;;5034032;28;20300;-82
2022/03/28 11:39:57;;;;;;;10.97;9.53;;;10.90;99.90;;;;;;4999776;28;20284;-75
2022/03/28 11:42:34;;;;;;;13.03;10.70;;;11.00;99.90;;;;;;5015322;28;20284;-78
2022/03/28 11:45:08;;;;;;;10.77;9.67;;;11.00;99.90;;;;;;5031965;28;20291;-83
2022/03/28 11:47:35;;;;;;;13.00;10.93;;;11.10;99.90;;;;;;5032862;28;20268;-85
2022/03/28 11:50:04;;;;;;;12.10;10.20;;;11.00;99.90;;;;;;5032947;28;20128;-89
2022/03/28 11:52:31;;;;;;;12.23;9.90;;;11.00;99.90;;;;;;5032678;28;20291;-87
2022/03/28 11:54:58;;;;;;;12.63;9.53;;;10.90;99.90;;;;;;5032595;28;20772;-87
2022/03/28 12:00:26;;;;;;;13.83;10.43;;;10.70;99.90;;;;;;5031279;28;20272;-79
2022/03/28 12:02:57;;;;;;;12.13;10.23;;;10.50;99.90;;;;;;5031880;28;20292;-86
2022/03/28 12:05:29;;;;;;;12.90;10.93;;;10.60;99.90;;;;;;5032531;28;20641;-84
2022/03/28 12:07:55;;;;;;;12.30;11.00;;;10.60;99.90;;;;;;5031823;28;20755;-84
2022/03/28 12:10:25;;;;;;;13.50;10.03;;;10.50;99.90;;;;;;5032428;28;20345;-84
2022/03/28 12:12:51;;;;;;;13.07;10.63;;;10.50;99.90;;;;;;5031653;28;20292;-82
2022/03/28 12:15:35;;;;;;;14.00;10.40;;;10.60;99.90;;;;;;5032424;28;20287;-81
2022/03/28 12:18:08;;;;;;;15.70;10.90;;;10.70;99.90;;;;;;5032492;28;20350;-78
2022/03/28 12:20:36;;;;;;;14.83;11.27;;;10.60;99.90;;;;;;5031093;28;20277;-81
2022/03/28 12:23:04;;;;;;;13.10;11.07;;;10.60;99.90;;;;;;5032666;28;20287;-78
2022/03/28 12:25:36;;;;;;;14.97;11.10;;;10.60;99.90;;;;;;5031926;28;20632;-78
2022/03/28 12:28:08;;;;;;;11.00;9.37;;;10.60;99.90;;;;;;5032680;28;20276;-78
2022/03/28 12:30:51;;;;;;;17.43;10.57;;;10.60;99.90;;;;;;5031818;28;20280;-78
2022/03/28 12:33:21;;;;;;;12.23;10.70;;;10.60;99.90;;;;;;5036038;28;20273;-77
2022/03/28 12:35:52;;;;;;;11.53;10.13;;;10.70;99.90;;;;;;5036133;28;20617;-79
2022/03/28 12:38:20;;;;;;;12.87;11.00;;;10.70;99.90;;;;;;5034750;28;20300;-79
2022/03/28 12:40:50;;;;;;;12.83;11.27;;;10.70;99.90;;;;;;5035173;28;20284;-78
2022/03/28 12:43:17;;;;;;;15.67;11.30;;;10.70;99.90;;;;;;5036272;28;20268;-81
2022/03/28 12:45:44;;;;;;;16.10;11.30;;;10.70;99.90;;;;;;5036476;28;20284;-83
2022/03/28 12:48:11;;;;;;;14.50;11.27;;;10.70;99.90;;;;;;5036360;28;20288;-82
2022/03/28 12:50:57;;;;;;;14.07;11.13;;;10.80;99.90;;;;;;5040357;28;20276;-81
2022/03/28 12:53:29;;;;;;;12.13;10.60;;;10.80;99.90;;;;;;5039016;28;20292;-82
2022/03/28 12:56:12;;;;;;;12.87;11.13;;;;;;;;;;5021113;28;20296;-85